sim
Sign-in with your pilot id or email,
or register
Callsign
Passwort

Schedule Details

Flight Number: DLH2017
Departure: Dusseldorf International Airport (EDDL) at 17:25
Arrival: Munich Airport (EDDM) at 18:35
Route: Lufthansa Passenger Schedule. Enter filed route here before submitting Pirep.

Weather Information
Getting current METAR information for EDDL 220050Z 12003KT CAVOK 11/09 Q1013 NOSIG
Getting current METAR information for EDDM 220050Z VRB01KT 5000 1200N R08L/0800D R08R/P2000N BCFG NSC 08/08 Q1015 TEMPO 2500

Schedule Frequency

Route Map